sensor_id;sensor_type;location;lat;lon;timestamp;P1;durP1;ratioP1;P2;durP2;ratioP2
60436;SDS011;46289;51.992;4.498;2022-12-07T00:01:24;11.02;;;4.15;;
60436;SDS011;46289;51.992;4.498;2022-12-07T00:03:55;8.73;;;3.10;;
60436;SDS011;46289;51.992;4.498;2022-12-07T00:06:31;7.03;;;2.85;;
60436;SDS011;46289;51.992;4.498;2022-12-07T00:09:30;7.72;;;3.75;;
60436;SDS011;46289;51.992;4.498;2022-12-07T00:12:56;5.93;;;2.30;;
60436;SDS011;46289;51.992;4.498;2022-12-07T00:23:30;9.50;;;2.75;;
60436;SDS011;46289;51.992;4.498;2022-12-07T01:03:17;6.50;;;2.10;;
60436;SDS011;46289;51.992;4.498;2022-12-07T01:13:35;4.50;;;1.73;;
60436;SDS011;46289;51.992;4.498;2022-12-07T01:27:26;6.80;;;3.10;;
60436;SDS011;46289;51.992;4.498;2022-12-07T01:29:57;2.95;;;1.95;;
60436;SDS011;46289;51.992;4.498;2022-12-07T01:33:25;2.70;;;1.45;;
60436;SDS011;46289;51.992;4.498;2022-12-07T01:40:21;4.13;;;2.67;;
60436;SDS011;46289;51.992;4.498;2022-12-07T01:42:54;4.03;;;1.77;;
60436;SDS011;46289;51.992;4.498;2022-12-07T01:48:14;3.58;;;1.83;;
60436;SDS011;46289;51.992;4.498;2022-12-07T01:50:48;4.85;;;1.90;;
60436;SDS011;46289;51.992;4.498;2022-12-07T01:53:24;2.47;;;1.67;;
60436;SDS011;46289;51.992;4.498;2022-12-07T01:55:58;4.10;;;2.10;;
60436;SDS011;46289;51.992;4.498;2022-12-07T01:58:31;7.57;;;1.90;;
60436;SDS011;46289;51.992;4.498;2022-12-07T02:01:01;3.30;;;1.85;;
60436;SDS011;46289;51.992;4.498;2022-12-07T02:03:31;3.03;;;1.65;;
60436;SDS011;46289;51.992;4.498;2022-12-07T02:06:05;3.83;;;1.52;;
60436;SDS011;46289;51.992;4.498;2022-12-07T02:08:37;3.88;;;1.80;;
60436;SDS011;46289;51.992;4.498;2022-12-07T02:11:07;7.22;;;1.90;;
60436;SDS011;46289;51.992;4.498;2022-12-07T02:13:41;3.67;;;1.40;;
60436;SDS011;46289;51.992;4.498;2022-12-07T02:16:18;2.83;;;1.52;;
60436;SDS011;46289;51.992;4.498;2022-12-07T02:19:43;5.63;;;2.07;;
60436;SDS011;46289;51.992;4.498;2022-12-07T02:33:35;1.77;;;1.33;;
60436;SDS011;46289;51.992;4.498;2022-12-07T02:37:25;1.60;;;1.50;;
60436;SDS011;46289;51.992;4.498;2022-12-07T03:05:34;3.47;;;1.48;;
60436;SDS011;46289;51.992;4.498;2022-12-07T03:08:29;10.63;;;1.75;;
60436;SDS011;46289;51.992;4.498;2022-12-07T03:11:06;4.28;;;1.45;;
60436;SDS011;46289;51.992;4.498;2022-12-07T03:13:46;2.30;;;1.25;;
60436;SDS011;46289;51.992;4.498;2022-12-07T03:16:21;7.28;;;1.90;;
60436;SDS011;46289;51.992;4.498;2022-12-07T03:18:58;3.53;;;1.70;;
60436;SDS011;46289;51.992;4.498;2022-12-07T03:21:34;3.88;;;1.50;;
60436;SDS011;46289;51.992;4.498;2022-12-07T03:24:08;2.25;;;1.23;;
60436;SDS011;46289;51.992;4.498;2022-12-07T03:26:43;4.10;;;1.73;;
60436;SDS011;46289;51.992;4.498;2022-12-07T03:29:18;6.68;;;1.58;;
60436;SDS011;46289;51.992;4.498;2022-12-07T03:31:53;1.75;;;1.33;;
60436;SDS011;46289;51.992;4.498;2022-12-07T03:34:30;3.53;;;1.50;;
60436;SDS011;46289;51.992;4.498;2022-12-07T03:37:07;4.75;;;1.38;;
60436;SDS011;46289;51.992;4.498;2022-12-07T03:39:44;4.55;;;1.58;;
60436;SDS011;46289;51.992;4.498;2022-12-07T03:42:17;6.72;;;1.80;;
60436;SDS011;46289;51.992;4.498;2022-12-07T03:44:47;8.88;;;1.80;;
60436;SDS011;46289;51.992;4.498;2022-12-07T03:50:48;1.50;;;1.08;;
60436;SDS011;46289;51.992;4.498;2022-12-07T03:53:24;4.15;;;1.60;;
60436;SDS011;46289;51.992;4.498;2022-12-07T03:56:00;2.70;;;1.23;;
60436;SDS011;46289;51.992;4.498;2022-12-07T03:58:31;3.85;;;1.67;;
60436;SDS011;46289;51.992;4.498;2022-12-07T04:01:03;1.00;;;1.00;;
60436;SDS011;46289;51.992;4.498;2022-12-07T04:06:50;3.70;;;1.92;;
60436;SDS011;46289;51.992;4.498;2022-12-07T04:09:22;2.72;;;1.23;;
60436;SDS011;46289;51.992;4.498;2022-12-07T04:11:52;3.58;;;0.98;;
60436;SDS011;46289;51.992;4.498;2022-12-07T04:14:22;2.05;;;1.05;;
60436;SDS011;46289;51.992;4.498;2022-12-07T04:16:53;2.97;;;1.08;;
60436;SDS011;46289;51.992;4.498;2022-12-07T04:19:27;5.95;;;1.65;;
60436;SDS011;46289;51.992;4.498;2022-12-07T04:21:59;2.15;;;1.35;;
60436;SDS011;46289;51.992;4.498;2022-12-07T04:24:32;2.03;;;1.45;;
60436;SDS011;46289;51.992;4.498;2022-12-07T04:27:03;1.67;;;0.88;;
60436;SDS011;46289;51.992;4.498;2022-12-07T04:29:33;2.70;;;1.50;;
60436;SDS011;46289;51.992;4.498;2022-12-07T04:32:03;3.22;;;1.65;;
60436;SDS011;46289;51.992;4.498;2022-12-07T04:34:33;1.25;;;1.17;;
60436;SDS011;46289;51.992;4.498;2022-12-07T04:37:04;4.22;;;1.40;;
60436;SDS011;46289;51.992;4.498;2022-12-07T04:39:37;9.77;;;2.08;;
60436;SDS011;46289;51.992;4.498;2022-12-07T04:42:07;2.67;;;1.53;;
60436;SDS011;46289;51.992;4.498;2022-12-07T04:44:37;2.95;;;1.23;;
60436;SDS011;46289;51.992;4.498;2022-12-07T04:47:07;1.73;;;1.10;;
60436;SDS011;46289;51.992;4.498;2022-12-07T04:49:37;1.50;;;1.15;;
60436;SDS011;46289;51.992;4.498;2022-12-07T04:52:07;1.60;;;1.00;;
60436;SDS011;46289;51.992;4.498;2022-12-07T04:54:39;3.08;;;1.67;;
60436;SDS011;46289;51.992;4.498;2022-12-07T04:57:09;1.77;;;1.33;;
60436;SDS011;46289;51.992;4.498;2022-12-07T04:59:39;1.98;;;1.38;;
60436;SDS011;46289;51.992;4.498;2022-12-07T05:02:11;2.08;;;1.25;;
60436;SDS011;46289;51.992;4.498;2022-12-07T05:04:41;2.45;;;1.42;;
60436;SDS011;46289;51.992;4.498;2022-12-07T05:07:11;5.57;;;1.58;;
60436;SDS011;46289;51.992;4.498;2022-12-07T05:09:43;4.25;;;1.73;;
60436;SDS011;46289;51.992;4.498;2022-12-07T05:12:13;3.10;;;1.42;;
60436;SDS011;46289;51.992;4.498;2022-12-07T05:14:43;2.45;;;1.40;;
60436;SDS011;46289;51.992;4.498;2022-12-07T05:21:18;4.68;;;2.33;;
60436;SDS011;46289;51.992;4.498;2022-12-07T05:33:15;4.28;;;1.70;;
60436;SDS011;46289;51.992;4.498;2022-12-07T05:36:45;6.30;;;2.22;;
60436;SDS011;46289;51.992;4.498;2022-12-07T05:39:58;3.55;;;2.08;;
60436;SDS011;46289;51.992;4.498;2022-12-07T05:43:18;4.88;;;2.30;;
60436;SDS011;46289;51.992;4.498;2022-12-07T06:07:11;10.40;;;3.67;;
60436;SDS011;46289;51.992;4.498;2022-12-07T06:14:29;6.13;;;2.40;;
60436;SDS011;46289;51.992;4.498;2022-12-07T06:17:58;7.05;;;2.75;;
60436;SDS011;46289;51.992;4.498;2022-12-07T06:21:43;7.93;;;2.60;;
60436;SDS011;46289;51.992;4.498;2022-12-07T06:24:16;6.25;;;2.70;;
60436;SDS011;46289;51.992;4.498;2022-12-07T06:26:53;5.38;;;2.42;;
60436;SDS011;46289;51.992;4.498;2022-12-07T06:33:56;3.53;;;2.00;;
60436;SDS011;46289;51.992;4.498;2022-12-07T06:36:58;9.52;;;2.50;;
60436;SDS011;46289;51.992;4.498;2022-12-07T06:40:07;5.53;;;2.60;;
60436;SDS011;46289;51.992;4.498;2022-12-07T06:42:59;4.95;;;2.47;;
60436;SDS011;46289;51.992;4.498;2022-12-07T06:45:31;4.68;;;2.25;;
60436;SDS011;46289;51.992;4.498;2022-12-07T06:48:08;2.80;;;2.25;;
60436;SDS011;46289;51.992;4.498;2022-12-07T06:50:39;7.93;;;2.50;;
60436;SDS011;46289;51.992;4.498;2022-12-07T06:53:11;5.15;;;2.92;;
60436;SDS011;46289;51.992;4.498;2022-12-07T06:55:44;6.40;;;2.90;;
60436;SDS011;46289;51.992;4.498;2022-12-07T06:58:46;5.13;;;2.83;;
60436;SDS011;46289;51.992;4.498;2022-12-07T07:01:34;5.97;;;2.30;;
60436;SDS011;46289;51.992;4.498;2022-12-07T07:04:12;7.22;;;2.75;;
60436;SDS011;46289;51.992;4.498;2022-12-07T07:07:14;6.80;;;2.97;;
60436;SDS011;46289;51.992;4.498;2022-12-07T07:12:55;7.10;;;2.55;;
60436;SDS011;46289;51.992;4.498;2022-12-07T07:15:39;6.22;;;2.60;;
60436;SDS011;46289;51.992;4.498;2022-12-07T07:18:25;7.75;;;2.72;;
60436;SDS011;46289;51.992;4.498;2022-12-07T07:21:04;7.38;;;2.80;;
60436;SDS011;46289;51.992;4.498;2022-12-07T07:23:43;10.23;;;4.35;;
60436;SDS011;46289;51.992;4.498;2022-12-07T07:26:19;9.10;;;3.97;;
60436;SDS011;46289;51.992;4.498;2022-12-07T07:29:05;9.32;;;4.20;;
60436;SDS011;46289;51.992;4.498;2022-12-07T07:31:42;14.02;;;4.82;;
60436;SDS011;46289;51.992;4.498;2022-12-07T07:34:14;9.07;;;3.92;;
60436;SDS011;46289;51.992;4.498;2022-12-07T07:36:56;7.30;;;3.53;;
60436;SDS011;46289;51.992;4.498;2022-12-07T07:39:29;7.00;;;3.30;;
60436;SDS011;46289;51.992;4.498;2022-12-07T07:41:59;12.25;;;4.35;;
60436;SDS011;46289;51.992;4.498;2022-12-07T07:44:36;8.10;;;3.70;;
60436;SDS011;46289;51.992;4.498;2022-12-07T07:47:06;9.70;;;4.77;;
60436;SDS011;46289;51.992;4.498;2022-12-07T07:49:37;6.78;;;3.63;;
60436;SDS011;46289;51.992;4.498;2022-12-07T07:52:13;9.00;;;3.45;;
60436;SDS011;46289;51.992;4.498;2022-12-07T07:54:43;11.68;;;3.10;;
60436;SDS011;46289;51.992;4.498;2022-12-07T07:57:13;6.18;;;2.55;;
60436;SDS011;46289;51.992;4.498;2022-12-07T07:59:47;7.45;;;2.60;;
60436;SDS011;46289;51.992;4.498;2022-12-07T08:02:19;6.20;;;2.58;;
60436;SDS011;46289;51.992;4.498;2022-12-07T08:04:49;6.68;;;3.15;;
60436;SDS011;46289;51.992;4.498;2022-12-07T08:07:19;8.77;;;2.70;;
60436;SDS011;46289;51.992;4.498;2022-12-07T08:09:51;12.55;;;4.47;;
60436;SDS011;46289;51.992;4.498;2022-12-07T08:12:35;10.25;;;3.90;;
60436;SDS011;46289;51.992;4.498;2022-12-07T08:15:29;8.20;;;3.40;;
60436;SDS011;46289;51.992;4.498;2022-12-07T08:18:00;8.30;;;3.10;;
60436;SDS011;46289;51.992;4.498;2022-12-07T08:20:30;6.65;;;2.88;;
60436;SDS011;46289;51.992;4.498;2022-12-07T08:23:01;9.57;;;3.20;;
60436;SDS011;46289;51.992;4.498;2022-12-07T08:25:31;9.95;;;3.03;;
60436;SDS011;46289;51.992;4.498;2022-12-07T08:28:02;7.70;;;3.00;;
60436;SDS011;46289;51.992;4.498;2022-12-07T08:30:37;9.65;;;3.70;;
60436;SDS011;46289;51.992;4.498;2022-12-07T08:33:08;7.53;;;3.72;;
60436;SDS011;46289;51.992;4.498;2022-12-07T08:35:38;5.57;;;3.28;;
60436;SDS011;46289;51.992;4.498;2022-12-07T08:38:08;9.50;;;3.47;;
60436;SDS011;46289;51.992;4.498;2022-12-07T08:40:38;8.27;;;3.00;;
60436;SDS011;46289;51.992;4.498;2022-12-07T08:43:07;6.72;;;2.72;;
60436;SDS011;46289;51.992;4.498;2022-12-07T08:45:40;8.43;;;2.80;;
60436;SDS011;46289;51.992;4.498;2022-12-07T08:48:10;6.68;;;3.22;;
60436;SDS011;46289;51.992;4.498;2022-12-07T08:50:44;7.05;;;3.45;;
60436;SDS011;46289;51.992;4.498;2022-12-07T08:53:15;9.15;;;3.15;;
60436;SDS011;46289;51.992;4.498;2022-12-07T08:55:51;5.68;;;3.38;;
60436;SDS011;46289;51.992;4.498;2022-12-07T08:58:21;7.32;;;3.53;;
60436;SDS011;46289;51.992;4.498;2022-12-07T09:00:53;8.95;;;3.50;;
60436;SDS011;46289;51.992;4.498;2022-12-07T09:03:23;5.82;;;3.28;;
60436;SDS011;46289;51.992;4.498;2022-12-07T09:05:53;6.97;;;4.10;;
60436;SDS011;46289;51.992;4.498;2022-12-07T09:08:25;7.80;;;3.55;;
60436;SDS011;46289;51.992;4.498;2022-12-07T09:10:59;9.02;;;3.65;;
60436;SDS011;46289;51.992;4.498;2022-12-07T09:13:28;9.05;;;3.90;;
60436;SDS011;46289;51.992;4.498;2022-12-07T09:16:01;5.35;;;3.08;;
60436;SDS011;46289;51.992;4.498;2022-12-07T09:18:31;10.13;;;4.20;;
60436;SDS011;46289;51.992;4.498;2022-12-07T09:21:01;12.20;;;4.85;;
60436;SDS011;46289;51.992;4.498;2022-12-07T09:23:32;12.40;;;5.22;;
60436;SDS011;46289;51.992;4.498;2022-12-07T09:29:53;10.57;;;4.07;;
60436;SDS011;46289;51.992;4.498;2022-12-07T09:45:52;10.80;;;4.88;;
60436;SDS011;46289;51.992;4.498;2022-12-07T09:48:25;13.75;;;6.25;;
60436;SDS011;46289;51.992;4.498;2022-12-07T09:50:59;10.95;;;6.07;;
60436;SDS011;46289;51.992;4.498;2022-12-07T10:00:38;9.82;;;5.15;;
60436;SDS011;46289;51.992;4.498;2022-12-07T10:04:05;12.50;;;4.90;;
60436;SDS011;46289;51.992;4.498;2022-12-07T10:06:38;9.43;;;5.05;;
60436;SDS011;46289;51.992;4.498;2022-12-07T10:09:20;15.65;;;5.88;;
60436;SDS011;46289;51.992;4.498;2022-12-07T10:12:08;18.92;;;5.78;;
60436;SDS011;46289;51.992;4.498;2022-12-07T10:14:54;9.40;;;5.25;;
60436;SDS011;46289;51.992;4.498;2022-12-07T10:20:25;19.50;;;8.20;;
60436;SDS011;46289;51.992;4.498;2022-12-07T10:22:56;11.05;;;6.55;;
60436;SDS011;46289;51.992;4.498;2022-12-07T10:25:26;13.70;;;6.05;;
60436;SDS011;46289;51.992;4.498;2022-12-07T10:27:59;14.48;;;5.68;;
60436;SDS011;46289;51.992;4.498;2022-12-07T10:30:29;12.68;;;6.20;;
60436;SDS011;46289;51.992;4.498;2022-12-07T10:32:59;10.10;;;5.57;;
60436;SDS011;46289;51.992;4.498;2022-12-07T10:35:31;11.05;;;4.93;;
60436;SDS011;46289;51.992;4.498;2022-12-07T10:38:01;9.52;;;4.55;;
60436;SDS011;46289;51.992;4.498;2022-12-07T10:40:31;14.82;;;4.55;;
60436;SDS011;46289;51.992;4.498;2022-12-07T10:43:05;7.47;;;4.18;;
60436;SDS011;46289;51.992;4.498;2022-12-07T10:45:37;9.52;;;3.83;;
60436;SDS011;46289;51.992;4.498;2022-12-07T10:48:30;14.57;;;3.80;;
60436;SDS011;46289;51.992;4.498;2022-12-07T10:51:07;8.77;;;3.33;;
60436;SDS011;46289;51.992;4.498;2022-12-07T10:53:48;6.10;;;3.05;;
60436;SDS011;46289;51.992;4.498;2022-12-07T10:56:28;7.57;;;3.38;;
60436;SDS011;46289;51.992;4.498;2022-12-07T10:59:03;9.98;;;3.55;;
60436;SDS011;46289;51.992;4.498;2022-12-07T11:01:37;6.55;;;3.30;;
60436;SDS011;46289;51.992;4.498;2022-12-07T11:04:15;7.72;;;2.50;;
60436;SDS011;46289;51.992;4.498;2022-12-07T11:06:51;6.25;;;2.83;;
60436;SDS011;46289;51.992;4.498;2022-12-07T11:09:34;6.10;;;2.33;;
60436;SDS011;46289;51.992;4.498;2022-12-07T11:12:29;5.80;;;2.67;;
60436;SDS011;46289;51.992;4.498;2022-12-07T11:15:03;10.07;;;2.65;;
60436;SDS011;46289;51.992;4.498;2022-12-07T11:17:35;5.72;;;2.03;;
60436;SDS011;46289;51.992;4.498;2022-12-07T11:20:12;4.28;;;2.20;;
60436;SDS011;46289;51.992;4.498;2022-12-07T11:22:46;7.50;;;2.10;;
60436;SDS011;46289;51.992;4.498;2022-12-07T11:25:21;4.82;;;1.85;;
60436;SDS011;46289;51.992;4.498;2022-12-07T11:27:58;5.50;;;1.63;;
60436;SDS011;46289;51.992;4.498;2022-12-07T11:30:33;5.80;;;1.83;;
60436;SDS011;46289;51.992;4.498;2022-12-07T11:33:06;6.07;;;1.58;;
60436;SDS011;46289;51.992;4.498;2022-12-07T11:35:42;5.13;;;1.65;;
60436;SDS011;46289;51.992;4.498;2022-12-07T11:38:18;1.63;;;1.27;;
60436;SDS011;46289;51.992;4.498;2022-12-07T11:40:56;3.90;;;1.40;;
60436;SDS011;46289;51.992;4.498;2022-12-07T11:43:50;3.65;;;0.98;;
60436;SDS011;46289;51.992;4.498;2022-12-07T13:21:56;8.38;;;2.67;;
60436;SDS011;46289;51.992;4.498;2022-12-07T13:29:19;3.00;;;1.48;;
60436;SDS011;46289;51.992;4.498;2022-12-07T14:27:30;5.63;;;1.55;;
60436;SDS011;46289;51.992;4.498;2022-12-07T14:30:34;2.97;;;1.30;;
60436;SDS011;46289;51.992;4.498;2022-12-07T14:33:04;3.78;;;1.55;;
60436;SDS011;46289;51.992;4.498;2022-12-07T14:35:35;3.65;;;1.45;;
60436;SDS011;46289;51.992;4.498;2022-12-07T14:38:07;3.53;;;1.40;;
60436;SDS011;46289;51.992;4.498;2022-12-07T14:40:36;2.75;;;1.17;;
60436;SDS011;46289;51.992;4.498;2022-12-07T14:43:10;2.40;;;1.23;;
60436;SDS011;46289;51.992;4.498;2022-12-07T14:48:15;2.03;;;1.05;;
60436;SDS011;46289;51.992;4.498;2022-12-07T14:51:04;3.83;;;1.23;;
60436;SDS011;46289;51.992;4.498;2022-12-07T14:53:54;5.15;;;1.48;;
60436;SDS011;46289;51.992;4.498;2022-12-07T14:56:23;2.28;;;1.27;;
60436;SDS011;46289;51.992;4.498;2022-12-07T14:58:54;2.78;;;1.20;;
60436;SDS011;46289;51.992;4.498;2022-12-07T15:01:24;3.70;;;1.50;;
60436;SDS011;46289;51.992;4.498;2022-12-07T15:03:55;5.20;;;1.70;;
60436;SDS011;46289;51.992;4.498;2022-12-07T15:06:25;4.47;;;1.60;;
60436;SDS011;46289;51.992;4.498;2022-12-07T15:08:55;2.67;;;1.60;;
60436;SDS011;46289;51.992;4.498;2022-12-07T15:11:24;3.60;;;1.50;;
60436;SDS011;46289;51.992;4.498;2022-12-07T15:13:54;6.30;;;2.00;;
60436;SDS011;46289;51.992;4.498;2022-12-07T15:16:40;2.85;;;1.60;;
60436;SDS011;46289;51.992;4.498;2022-12-07T15:19:32;2.97;;;1.90;;
60436;SDS011;46289;51.992;4.498;2022-12-07T15:22:01;3.67;;;1.67;;
60436;SDS011;46289;51.992;4.498;2022-12-07T15:24:31;3.88;;;1.60;;
60436;SDS011;46289;51.992;4.498;2022-12-07T15:27:00;5.45;;;1.92;;
60436;SDS011;46289;51.992;4.498;2022-12-07T15:29:30;2.20;;;1.48;;
60436;SDS011;46289;51.992;4.498;2022-12-07T15:31:59;5.25;;;1.75;;
60436;SDS011;46289;51.992;4.498;2022-12-07T15:34:32;4.65;;;1.98;;
60436;SDS011;46289;51.992;4.498;2022-12-07T15:37:05;5.05;;;1.80;;
60436;SDS011;46289;51.992;4.498;2022-12-07T15:39:35;3.92;;;1.95;;
60436;SDS011;46289;51.992;4.498;2022-12-07T15:42:05;5.15;;;1.73;;
60436;SDS011;46289;51.992;4.498;2022-12-07T15:44:34;4.90;;;2.00;;
60436;SDS011;46289;51.992;4.498;2022-12-07T15:47:16;5.00;;;1.67;;
60436;SDS011;46289;51.992;4.498;2022-12-07T15:49:49;3.63;;;1.60;;
60436;SDS011;46289;51.992;4.498;2022-12-07T15:52:19;3.13;;;1.40;;
60436;SDS011;46289;51.992;4.498;2022-12-07T15:54:49;2.15;;;1.30;;
60436;SDS011;46289;51.992;4.498;2022-12-07T15:57:21;3.92;;;1.70;;
60436;SDS011;46289;51.992;4.498;2022-12-07T15:59:51;5.30;;;1.70;;
60436;SDS011;46289;51.992;4.498;2022-12-07T16:02:20;6.05;;;2.05;;
60436;SDS011;46289;51.992;4.498;2022-12-07T16:04:52;3.25;;;1.48;;
60436;SDS011;46289;51.992;4.498;2022-12-07T16:07:22;4.43;;;1.83;;
60436;SDS011;46289;51.992;4.498;2022-12-07T16:09:51;5.88;;;1.90;;
60436;SDS011;46289;51.992;4.498;2022-12-07T16:12:21;6.07;;;2.20;;
60436;SDS011;46289;51.992;4.498;2022-12-07T16:14:51;4.82;;;1.92;;
